首页
METAR-TAF:

METAR-TAF

机场 :

Wheeling - Ohio County Airport

惠灵, 西維吉尼亞州, 美国

纬度: 40-10-13N, 经度: 080-38-40W, 海拔: 364米

当前天气观测

该预报发布于45分钟前的07:53 UTC
风速7节,风向北转东北
温度 -7°C
湿度 73%
气压 1035 hPa
能見度: 16.1公里
天空无云

METAR: KHLG 120753Z AUTO 03007KT 10SM CLR M07/M11 A3057 RMK AO2 SLP372 T10671111

时间: 03:38 (08:38 UTC)

预报

该预报发布于3小时和18分钟前的05:20 UTC
预报有效从12日的 06点(UTC)到 13日的 06点(UTC)
风速3节,风向多变
能見度: 10公里
天空无云
从 12日的 1500点(UTC)
风速5节,风向南转南东
能見度: 10公里
多云层高于25000英尺

TAF: KHLG 120520Z 1206/1306 VRB03KT P6SM SKC FM121500 15005KT P6SM BKN250

超过4000个机场的气象观测和天气预报(METAR&TAF报告)。

可查询的气象台以黄色和红色小点在地图上表示。

将鼠标移到小点上方,可查看气象台名称。

然后点击查看天气观测和预报。

如需切换地图:点击带黑十字的绿色按钮放大地图;点击带横线的绿色按钮缩小地图;或者点击绿色箭头查看邻近地区的地图。


METAR-TAF: